createdAt,value
2017-09-19T00:01:23.669Z,24.87
2017-09-19T00:03:52.046Z,23.57
2017-09-19T00:06:20.433Z,23.67
2017-09-19T00:08:48.836Z,23.30
2017-09-19T00:11:17.199Z,24.93
2017-09-19T00:13:45.558Z,23.93
2017-09-19T00:16:13.937Z,24.60
2017-09-19T00:18:42.283Z,25.07
2017-09-19T00:21:10.666Z,23.23
2017-09-19T00:23:39.025Z,23.73
2017-09-19T00:26:07.414Z,24.00
2017-09-19T00:28:35.779Z,25.50
2017-09-19T00:31:04.186Z,24.00
2017-09-19T00:33:32.567Z,23.30
2017-09-19T00:36:00.741Z,25.23
2017-09-19T00:38:28.925Z,23.87
2017-09-19T00:40:57.376Z,23.63
2017-09-19T00:43:25.827Z,23.13
2017-09-19T00:45:54.177Z,23.67
2017-09-19T00:48:22.575Z,23.83
2017-09-19T00:50:50.936Z,24.90
2017-09-19T00:53:20.658Z,24.00
2017-09-19T00:55:48.419Z,24.80
2017-09-19T00:58:16.475Z,24.80
2017-09-19T01:00:45.627Z,25.47
2017-09-19T01:03:14.762Z,25.23
2017-09-19T01:05:43.114Z,25.57
2017-09-19T01:08:11.876Z,26.17
2017-09-19T01:10:40.226Z,25.03
2017-09-19T01:13:08.603Z,24.57
2017-09-19T01:15:36.983Z,25.00
2017-09-19T01:18:05.357Z,25.37
2017-09-19T01:20:33.799Z,24.43
2017-09-19T01:23:02.650Z,25.13
2017-09-19T01:25:31.211Z,24.70
2017-09-19T01:27:59.581Z,26.00
2017-09-19T01:30:29.306Z,24.20
2017-09-19T01:32:57.653Z,25.27
2017-09-19T01:35:26.258Z,24.80
2017-09-19T01:37:54.738Z,26.37
2017-09-19T01:40:23.100Z,26.93
2017-09-19T01:42:51.471Z,25.20
2017-09-19T01:45:20.786Z,24.17
2017-09-19T01:47:49.136Z,25.80
2017-09-19T01:50:18.285Z,26.73
2017-09-19T01:52:46.634Z,25.03
2017-09-19T01:55:15.022Z,26.53
2017-09-19T01:57:43.584Z,24.40
2017-09-19T02:00:12.064Z,25.10
2017-09-19T02:02:40.422Z,26.53
2017-09-19T02:05:08.795Z,25.00
2017-09-19T02:07:37.155Z,25.93
2017-09-19T02:10:05.541Z,26.20
2017-09-19T02:12:34.044Z,27.60
2017-09-19T02:15:02.417Z,26.17
2017-09-19T02:17:31.115Z,27.30
2017-09-19T02:19:59.475Z,24.37
2017-09-19T02:22:27.859Z,24.80
2017-09-19T02:24:56.223Z,27.43
2017-09-19T02:27:24.583Z,26.40
2017-09-19T02:29:52.941Z,25.63
2017-09-19T02:32:21.770Z,27.33
2017-09-19T02:34:50.248Z,25.97
2017-09-19T02:37:19.444Z,26.87
2017-09-19T02:39:47.814Z,24.20
2017-09-19T02:42:16.177Z,24.93
2017-09-19T02:44:44.544Z,28.13
2017-09-19T02:47:12.927Z,25.13
2017-09-19T02:49:41.301Z,28.53
2017-09-19T02:52:09.812Z,26.10
2017-09-19T02:54:38.167Z,26.37
2017-09-19T02:57:06.639Z,29.17
2017-09-19T02:59:34.994Z,27.37
2017-09-19T03:02:03.352Z,28.73
2017-09-19T03:04:31.730Z,27.07
2017-09-19T03:07:00.094Z,27.20
2017-09-19T03:09:28.710Z,26.60
2017-09-19T03:11:57.074Z,27.30
2017-09-19T03:14:25.658Z,25.53
2017-09-19T03:16:54.995Z,25.87
2017-09-19T03:19:23.352Z,25.70
2017-09-19T03:21:52.722Z,24.97
2017-09-19T03:24:21.861Z,23.87
2017-09-19T03:26:50.214Z,24.57
2017-09-19T03:29:18.595Z,23.47
2017-09-19T03:31:47.710Z,24.07
2017-09-19T03:34:16.079Z,25.50
2017-09-19T03:36:44.507Z,22.63
2017-09-19T03:39:13.150Z,23.63
2017-09-19T03:41:41.609Z,23.67
2017-09-19T03:44:09.964Z,24.30
2017-09-19T03:46:38.373Z,25.03
2017-09-19T03:49:06.728Z,24.93
2017-09-19T03:51:35.227Z,22.90
2017-09-19T03:54:03.589Z,24.07
2017-09-19T03:56:31.950Z,22.87
2017-09-19T03:59:01.100Z,21.70
2017-09-19T04:01:29.482Z,22.33
2017-09-19T04:03:58.029Z,23.17
2017-09-19T04:06:26.714Z,23.10
2017-09-19T04:08:55.074Z,22.30
2017-09-19T04:11:23.158Z,22.27
2017-09-19T04:13:51.512Z,23.67
2017-09-19T04:16:20.635Z,23.43
2017-09-19T04:18:48.735Z,21.87
2017-09-19T04:21:18.195Z,21.30
2017-09-19T04:23:46.569Z,22.50
2017-09-19T04:26:14.731Z,23.10
2017-09-19T04:28:42.913Z,22.50
2017-09-19T04:31:11.280Z,22.30
2017-09-19T04:33:41.260Z,23.97
2017-09-19T04:36:09.621Z,23.47
2017-09-19T04:38:38.058Z,23.07
2017-09-19T04:41:06.409Z,24.37
2017-09-19T04:43:35.014Z,22.00
2017-09-19T04:46:03.402Z,22.87
2017-09-19T04:48:31.768Z,22.60
2017-09-19T04:51:00.149Z,21.70
2017-09-19T04:53:29.464Z,22.93
2017-09-19T04:55:57.822Z,21.07
2017-09-19T04:58:26.191Z,23.70
2017-09-19T05:00:54.552Z,22.33
2017-09-19T05:03:23.045Z,22.07
2017-09-19T05:05:51.619Z,21.60
2017-09-19T05:08:20.059Z,22.37
2017-09-19T05:10:48.478Z,21.37
2017-09-19T05:13:16.875Z,22.13
2017-09-19T05:15:45.261Z,24.00
2017-09-19T05:18:13.643Z,23.23
2017-09-19T05:20:42.018Z,21.60
2017-09-19T05:23:10.564Z,23.50
2017-09-19T05:25:39.847Z,22.87
2017-09-19T05:28:08.226Z,23.03
2017-09-19T05:30:36.684Z,22.97
2017-09-19T05:33:05.787Z,21.10
2017-09-19T05:35:34.931Z,22.30
2017-09-19T05:38:04.291Z,22.60
2017-09-19T05:40:34.122Z,23.40
2017-09-19T05:43:02.691Z,24.03
2017-09-19T05:45:31.074Z,23.50
2017-09-19T05:47:59.493Z,22.80
2017-09-19T05:50:28.116Z,21.80
2017-09-19T05:52:57.257Z,22.73
2017-09-19T05:55:25.608Z,22.70
2017-09-19T05:57:54.292Z,23.73
2017-09-19T06:00:23.680Z,22.77
2017-09-19T06:02:52.084Z,24.80
2017-09-19T06:05:22.173Z,24.97
2017-09-19T06:07:50.656Z,24.87
2017-09-19T06:10:19.010Z,24.67
2017-09-19T06:12:48.021Z,23.47
2017-09-19T06:15:17.416Z,22.63
2017-09-19T06:17:46.026Z,22.60
2017-09-19T06:20:16.112Z,24.27
2017-09-19T06:22:44.591Z,24.30
2017-09-19T06:25:14.401Z,22.87
2017-09-19T06:27:42.797Z,25.17
2017-09-19T06:30:10.642Z,23.93
2017-09-19T06:32:39.013Z,21.10
2017-09-19T06:35:07.380Z,22.60
2017-09-19T06:37:35.744Z,23.63
2017-09-19T06:40:04.862Z,23.00
2017-09-19T06:42:33.226Z,18.87
2017-09-19T06:45:01.591Z,19.73
2017-09-19T06:47:30.718Z,18.77
2017-09-19T06:49:59.081Z,19.20
2017-09-19T06:52:27.573Z,16.60
2017-09-19T06:54:55.936Z,18.13
2017-09-19T06:57:24.334Z,18.97
2017-09-19T06:59:52.700Z,19.43
2017-09-19T07:02:21.344Z,19.30
2017-09-19T07:04:53.338Z,19.73
2017-09-19T07:07:21.710Z,17.27
2017-09-19T07:09:50.071Z,20.57
2017-09-19T07:12:18.451Z,20.60
2017-09-19T07:14:46.637Z,18.73
2017-09-19T07:17:15.006Z,17.37
2017-09-19T07:19:43.449Z,17.57
2017-09-19T07:22:11.865Z,20.07
2017-09-19T07:24:40.425Z,20.20
2017-09-19T07:27:08.791Z,19.73
2017-09-19T07:29:36.971Z,18.83
2017-09-19T07:32:05.325Z,18.30
2017-09-19T07:34:34.664Z,20.97
2017-09-19T07:37:03.127Z,19.20
2017-09-19T07:39:31.491Z,22.77
2017-09-19T07:41:59.851Z,21.53
2017-09-19T07:44:28.993Z,22.20
2017-09-19T07:46:57.373Z,22.50
2017-09-19T07:49:25.797Z,21.10
2017-09-19T07:51:54.171Z,22.87
2017-09-19T07:54:22.697Z,21.80
2017-09-19T07:56:51.077Z,21.60
2017-09-19T07:59:19.255Z,22.57
2017-09-19T08:01:47.640Z,22.30
2017-09-19T08:04:15.643Z,24.50
2017-09-19T08:06:44.020Z,22.60
2017-09-19T08:09:13.255Z,23.17
2017-09-19T08:11:42.386Z,23.10
2017-09-19T08:14:10.746Z,23.20
2017-09-19T08:16:39.133Z,22.60
2017-09-19T08:19:07.490Z,20.57
2017-09-19T08:21:35.850Z,21.83
2017-09-19T08:24:04.215Z,23.73
2017-09-19T08:26:32.585Z,22.07
2017-09-19T08:29:00.955Z,21.93
2017-09-19T08:31:29.459Z,21.27
2017-09-19T08:33:57.817Z,19.57
2017-09-19T08:36:26.746Z,19.53
2017-09-19T08:38:55.918Z,22.00
2017-09-19T08:41:24.394Z,24.57
2017-09-19T08:43:52.750Z,23.70
2017-09-19T08:46:21.390Z,23.60
2017-09-19T08:48:49.764Z,19.37
2017-09-19T08:51:18.131Z,23.53
2017-09-19T08:53:46.587Z,24.30
2017-09-19T08:56:15.017Z,24.53
2017-09-19T08:58:43.407Z,23.43
2017-09-19T09:01:11.790Z,23.20
2017-09-19T09:03:39.807Z,21.60
2017-09-19T09:06:08.173Z,23.73
2017-09-19T09:08:36.535Z,23.37
2017-09-19T09:11:04.983Z,23.00
2017-09-19T09:13:34.136Z,27.53
2017-09-19T09:16:02.537Z,24.83
2017-09-19T09:18:31.726Z,24.40
2017-09-19T09:21:00.360Z,21.73
2017-09-19T09:23:28.569Z,20.47
2017-09-19T09:25:57.071Z,19.93
2017-09-19T09:28:25.488Z,20.97
2017-09-19T09:30:54.066Z,20.40
2017-09-19T09:33:22.508Z,24.03
2017-09-19T09:35:50.867Z,19.83
2017-09-19T09:38:19.380Z,20.70
2017-09-19T09:40:47.749Z,22.10
2017-09-19T09:43:16.105Z,20.30
2017-09-19T09:45:44.627Z,21.87
2017-09-19T09:48:13.106Z,21.30
2017-09-19T09:50:41.493Z,20.60
2017-09-19T09:53:10.068Z,21.63
2017-09-19T09:55:38.480Z,21.97
2017-09-19T09:58:06.843Z,20.10
2017-09-19T10:00:35.207Z,22.47
2017-09-19T10:03:03.775Z,21.43
2017-09-19T10:05:32.148Z,19.07
2017-09-19T10:08:00.558Z,21.73
2017-09-19T10:10:28.928Z,20.43
2017-09-19T10:12:57.289Z,22.87
2017-09-19T10:15:25.661Z,21.67
2017-09-19T10:17:54.019Z,21.93
2017-09-19T10:20:22.390Z,22.67
2017-09-19T10:22:50.747Z,22.23
2017-09-19T10:25:19.129Z,22.87
2017-09-19T10:27:48.386Z,24.27
2017-09-19T10:30:16.743Z,21.60
2017-09-19T10:32:45.107Z,22.23
2017-09-19T10:35:13.468Z,24.37
2017-09-19T10:37:41.830Z,23.30
2017-09-19T10:40:10.954Z,25.43
2017-09-19T10:42:39.160Z,22.60
2017-09-19T10:45:07.528Z,21.73
2017-09-19T10:47:35.928Z,23.00
2017-09-19T10:50:04.509Z,21.77
2017-09-19T10:52:32.876Z,21.40
2017-09-19T10:55:01.236Z,23.93
2017-09-19T10:57:29.608Z,23.17
2017-09-19T10:59:58.175Z,23.77
2017-09-19T11:02:27.151Z,23.27
2017-09-19T11:04:55.505Z,25.63
2017-09-19T11:07:23.786Z,23.73
2017-09-19T11:09:52.172Z,24.90
2017-09-19T11:12:20.544Z,24.30
2017-09-19T11:14:48.913Z,22.87
2017-09-19T11:17:17.282Z,21.83
2017-09-19T11:19:45.642Z,20.00
2017-09-19T11:22:14.145Z,20.63
2017-09-19T11:24:42.537Z,21.17
2017-09-19T11:27:10.893Z,19.63
2017-09-19T11:29:39.292Z,19.20
2017-09-19T11:32:07.684Z,18.87
2017-09-19T11:34:36.084Z,18.60
2017-09-19T11:37:04.472Z,17.93
2017-09-19T11:39:33.019Z,19.50
2017-09-19T11:42:01.380Z,19.93
2017-09-19T11:44:29.742Z,19.50
2017-09-19T11:46:58.098Z,19.17
2017-09-19T11:49:26.481Z,18.13
2017-09-19T11:51:54.870Z,18.60
2017-09-19T11:54:23.862Z,17.87
2017-09-19T11:56:52.270Z,18.50
2017-09-19T11:59:20.666Z,17.57
2017-09-19T12:01:49.046Z,16.63
2017-09-19T12:04:18.212Z,18.40
2017-09-19T12:06:46.593Z,18.80
2017-09-19T12:09:15.183Z,19.10
2017-09-19T12:11:43.551Z,18.37
2017-09-19T12:14:11.920Z,18.63
2017-09-19T12:16:40.131Z,18.37
2017-09-19T12:19:08.506Z,19.77
2017-09-19T12:21:36.892Z,19.90
2017-09-19T12:24:05.301Z,18.63
2017-09-19T12:26:33.691Z,18.00
2017-09-19T12:29:02.099Z,16.97
2017-09-19T12:31:30.293Z,16.20
2017-09-19T12:33:59.005Z,16.87
2017-09-19T12:36:27.202Z,16.80
2017-09-19T12:38:55.584Z,14.93
2017-09-19T12:41:23.993Z,16.40
2017-09-19T12:43:53.330Z,17.20
2017-09-19T12:46:21.694Z,15.80
2017-09-19T12:48:50.070Z,16.53
2017-09-19T12:51:18.548Z,15.90
2017-09-19T12:53:46.915Z,16.47
2017-09-19T12:56:15.277Z,15.00
2017-09-19T12:58:44.706Z,15.37
2017-09-19T13:01:13.547Z,15.10
2017-09-19T13:03:42.682Z,13.40
2017-09-19T13:06:11.060Z,16.00
2017-09-19T13:08:39.544Z,13.47
2017-09-19T13:11:07.899Z,15.37
2017-09-19T13:13:36.281Z,14.30
2017-09-19T13:16:04.911Z,15.30
2017-09-19T13:18:33.293Z,16.40
2017-09-19T13:21:01.660Z,14.87
2017-09-19T13:23:30.202Z,15.20
2017-09-19T13:25:58.866Z,14.30
2017-09-19T13:28:28.095Z,15.70
2017-09-19T13:31:07.649Z,15.57
2017-09-19T13:33:46.280Z,14.27
2017-09-19T13:36:16.545Z,15.60
2017-09-19T13:38:45.528Z,15.97
2017-09-19T13:41:17.252Z,16.63
2017-09-19T13:43:45.639Z,17.60
2017-09-19T13:46:14.191Z,17.23
2017-09-19T13:48:42.357Z,18.07
2017-09-19T13:51:10.546Z,18.90
2017-09-19T13:53:38.734Z,19.03
2017-09-19T13:56:07.362Z,19.13
2017-09-19T13:58:35.760Z,18.30
2017-09-19T14:01:04.134Z,19.70
2017-09-19T14:03:32.800Z,17.87
2017-09-19T14:06:00.986Z,18.07
2017-09-19T14:08:29.411Z,17.43
2017-09-19T14:10:57.782Z,17.70
2017-09-19T14:13:26.301Z,16.00
2017-09-19T14:15:54.660Z,17.90
2017-09-19T14:18:23.023Z,18.47
2017-09-19T14:20:52.169Z,18.47
2017-09-19T14:23:20.556Z,18.17
2017-09-19T14:25:48.971Z,18.50
2017-09-19T14:28:18.096Z,18.00
2017-09-19T14:30:46.490Z,17.70
2017-09-19T14:33:14.875Z,17.63
2017-09-19T14:35:43.254Z,18.70
2017-09-19T14:38:11.816Z,16.43
2017-09-19T14:40:40.184Z,17.50
2017-09-19T14:43:08.567Z,16.50
2017-09-19T14:45:36.939Z,16.43
2017-09-19T14:48:05.567Z,15.87
2017-09-19T14:50:33.917Z,17.00
2017-09-19T14:53:02.297Z,16.50
2017-09-19T14:55:30.752Z,15.07
2017-09-19T14:57:59.178Z,16.27
2017-09-19T15:00:27.557Z,16.37
2017-09-19T15:02:55.918Z,17.00
2017-09-19T15:05:24.292Z,14.97
2017-09-19T15:07:52.656Z,14.93
2017-09-19T15:10:21.261Z,15.40
2017-09-19T15:12:49.674Z,14.40
2017-09-19T15:15:18.999Z,14.80
2017-09-19T15:17:48.374Z,15.80
2017-09-19T15:20:16.783Z,16.60
2017-09-19T15:22:45.048Z,14.27
2017-09-19T15:25:14.360Z,15.97
2017-09-19T15:27:42.749Z,16.20
2017-09-19T15:30:11.910Z,17.37
2017-09-19T15:32:40.307Z,16.53
2017-09-19T15:35:08.700Z,15.87
2017-09-19T15:37:37.120Z,16.13
2017-09-19T15:40:05.602Z,15.77
2017-09-19T15:42:33.958Z,17.83
2017-09-19T15:45:02.319Z,18.30
2017-09-19T15:47:31.479Z,18.70
2017-09-19T15:50:00.029Z,18.43
2017-09-19T15:52:28.659Z,16.43
2017-09-19T15:54:57.269Z,16.40
2017-09-19T15:57:25.659Z,16.40
2017-09-19T15:59:54.024Z,17.00
2017-09-19T16:02:22.419Z,14.77
2017-09-19T16:04:50.895Z,15.50
2017-09-19T16:07:19.274Z,16.57
2017-09-19T16:09:47.646Z,17.10
2017-09-19T16:12:16.033Z,17.00
2017-09-19T16:14:44.232Z,16.63
2017-09-19T16:17:12.780Z,17.47
2017-09-19T16:19:41.318Z,18.10
2017-09-19T16:22:09.833Z,17.57
2017-09-19T16:24:38.312Z,16.03
2017-09-19T16:27:06.896Z,16.10
2017-09-19T16:29:35.390Z,15.43
2017-09-19T16:32:04.059Z,14.60
2017-09-19T16:34:32.502Z,15.50
2017-09-19T16:37:00.866Z,15.37
2017-09-19T16:39:29.245Z,15.97
2017-09-19T16:41:57.666Z,16.27
2017-09-19T16:44:26.240Z,16.80
2017-09-19T16:46:54.636Z,16.27
2017-09-19T16:49:22.990Z,16.63
2017-09-19T16:51:51.201Z,16.90
2017-09-19T16:54:19.575Z,17.50
2017-09-19T16:56:47.948Z,16.30
2017-09-19T16:59:16.400Z,16.50
2017-09-19T17:01:44.783Z,16.60
2017-09-19T17:04:13.139Z,18.60
2017-09-19T17:06:41.609Z,17.60
2017-09-19T17:09:09.970Z,18.93
2017-09-19T17:11:38.586Z,18.70
2017-09-19T17:14:07.198Z,18.70
2017-09-19T17:16:35.579Z,17.33
2017-09-19T17:19:04.015Z,18.53
2017-09-19T17:21:32.400Z,18.33
2017-09-19T17:24:00.586Z,18.20
2017-09-19T17:26:28.763Z,16.97
2017-09-19T17:28:56.960Z,17.07
2017-09-19T17:31:25.147Z,16.87
2017-09-19T17:33:53.548Z,15.40
2017-09-19T17:36:21.929Z,16.37
2017-09-19T17:38:50.295Z,16.43
2017-09-19T17:41:18.675Z,17.47
2017-09-19T17:43:47.043Z,16.30
2017-09-19T17:46:15.398Z,16.40
2017-09-19T17:48:44.537Z,16.87
2017-09-19T17:51:13.110Z,16.10
2017-09-19T17:53:41.481Z,16.87
2017-09-19T17:56:09.846Z,16.53
2017-09-19T17:58:39.972Z,17.53
2017-09-19T18:01:08.562Z,16.10
2017-09-19T18:03:36.947Z,16.30
2017-09-19T18:06:05.608Z,17.37
2017-09-19T18:08:33.966Z,16.50
2017-09-19T18:11:04.062Z,17.47
2017-09-19T18:13:32.451Z,16.03
2017-09-19T18:16:00.961Z,17.13
2017-09-19T18:18:29.547Z,16.00
2017-09-19T18:20:58.056Z,16.50
2017-09-19T18:23:26.437Z,16.37
2017-09-19T18:25:54.943Z,17.80
2017-09-19T18:28:23.644Z,17.03
2017-09-19T18:30:52.006Z,17.47
2017-09-19T18:33:20.444Z,16.27
2017-09-19T18:35:48.830Z,17.53
2017-09-19T18:38:17.199Z,16.67
2017-09-19T18:40:45.589Z,17.13
2017-09-19T18:43:14.058Z,17.43
2017-09-19T18:45:42.703Z,18.60
2017-09-19T18:48:11.113Z,17.60
2017-09-19T18:50:39.491Z,17.83
2017-09-19T18:53:07.905Z,17.93
2017-09-19T18:55:36.293Z,18.73
2017-09-19T18:58:04.671Z,19.40
2017-09-19T19:00:33.080Z,19.53
2017-09-19T19:03:01.644Z,20.20
2017-09-19T19:05:30.043Z,20.60
2017-09-19T19:08:02.080Z,20.00
2017-09-19T19:10:30.483Z,18.97
2017-09-19T19:12:58.856Z,19.20
2017-09-19T19:15:27.260Z,20.47
2017-09-19T19:17:55.637Z,20.93
2017-09-19T19:20:24.009Z,20.40
2017-09-19T19:22:52.188Z,21.63
2017-09-19T19:25:20.406Z,24.40
2017-09-19T19:27:48.796Z,21.30
2017-09-19T19:30:17.177Z,21.43
2017-09-19T19:32:45.380Z,22.87
2017-09-19T19:35:14.017Z,21.13
2017-09-19T19:37:42.381Z,21.93
2017-09-19T19:40:10.753Z,22.20
2017-09-19T19:42:39.165Z,22.47
2017-09-19T19:45:07.535Z,21.57
2017-09-19T19:47:36.097Z,20.83
2017-09-19T19:50:04.472Z,22.80
2017-09-19T19:52:32.887Z,23.67
2017-09-19T19:55:01.302Z,22.10
2017-09-19T20:07:33.463Z,23.70
2017-09-19T20:10:01.623Z,23.30
2017-09-19T20:12:29.991Z,25.00
2017-09-19T20:14:58.399Z,26.50
2017-09-19T20:17:28.294Z,25.87
2017-09-19T20:19:56.702Z,26.17
2017-09-19T20:22:25.093Z,27.83
2017-09-19T20:24:53.512Z,28.20
2017-09-19T20:27:22.861Z,26.20
2017-09-19T20:29:51.247Z,26.17
2017-09-19T20:32:19.903Z,25.37
2017-09-19T20:34:49.156Z,28.40
2017-09-19T20:37:17.359Z,26.20
2017-09-19T20:39:45.744Z,28.37
2017-09-19T20:42:14.128Z,26.93
2017-09-19T20:44:43.280Z,26.10
2017-09-19T20:47:11.687Z,25.97
2017-09-19T20:49:40.135Z,27.70
2017-09-19T20:52:08.519Z,27.53
2017-09-19T20:54:36.905Z,27.43
2017-09-19T20:57:05.365Z,27.77
2017-09-19T20:59:33.571Z,28.10
2017-09-19T21:02:01.786Z,27.50
2017-09-19T21:04:35.716Z,26.93
2017-09-19T21:07:09.466Z,26.57
2017-09-19T21:09:43.526Z,30.47
2017-09-19T21:12:17.740Z,29.87
2017-09-19T21:14:51.582Z,28.33
2017-09-19T21:17:25.377Z,28.20
2017-09-19T21:19:53.106Z,27.57
2017-09-19T21:22:21.475Z,25.90
2017-09-19T21:24:49.846Z,29.43
2017-09-19T21:27:18.209Z,29.50
2017-09-19T21:29:46.612Z,29.93
2017-09-19T21:32:14.985Z,27.53
2017-09-19T21:34:43.350Z,27.47
2017-09-19T21:37:11.943Z,29.17
2017-09-19T21:39:40.319Z,27.47
2017-09-19T21:42:08.725Z,29.67
2017-09-19T21:44:37.084Z,27.30
2017-09-19T21:47:05.479Z,30.80
2017-09-19T21:49:36.470Z,31.07
2017-09-19T21:52:05.379Z,30.47
2017-09-19T21:54:33.806Z,32.33
2017-09-19T21:57:02.249Z,32.47
2017-09-19T21:59:30.704Z,29.37
2017-09-19T22:01:59.215Z,28.30
2017-09-19T22:04:27.611Z,29.90
2017-09-19T22:06:56.252Z,31.13
2017-09-19T22:09:24.631Z,27.87
2017-09-19T22:11:53.000Z,34.63
2017-09-19T22:14:21.455Z,29.17
2017-09-19T22:16:50.597Z,31.93
2017-09-19T22:19:18.993Z,31.60
2017-09-19T22:21:47.472Z,32.50
2017-09-19T22:24:15.848Z,28.87
2017-09-19T22:26:44.224Z,31.77
2017-09-19T22:29:12.752Z,30.50
2017-09-19T22:31:41.198Z,29.87
2017-09-19T22:34:10.353Z,30.90
2017-09-19T22:36:38.767Z,28.73
2017-09-19T22:39:07.258Z,31.10
2017-09-19T22:41:36.406Z,31.27
2017-09-19T22:44:04.805Z,30.60
2017-09-19T22:46:33.193Z,30.10
2017-09-19T22:49:01.603Z,31.57
2017-09-19T22:51:29.963Z,30.77
2017-09-19T22:53:58.334Z,31.33
2017-09-19T22:56:26.716Z,31.47
2017-09-19T22:58:55.208Z,30.00
2017-09-19T23:01:23.566Z,30.03
2017-09-19T23:03:52.070Z,32.33
2017-09-19T23:06:20.457Z,29.17
2017-09-19T23:08:48.838Z,30.67
2017-09-19T23:11:17.227Z,32.50
2017-09-19T23:13:45.627Z,30.87
2017-09-19T23:16:14.013Z,31.30
2017-09-19T23:18:42.375Z,32.60
2017-09-19T23:21:11.616Z,31.57
2017-09-19T23:23:39.975Z,32.00
2017-09-19T23:26:08.367Z,30.53
2017-09-19T23:28:36.728Z,31.83
2017-09-19T23:31:05.107Z,31.50
2017-09-19T23:33:33.551Z,30.67
2017-09-19T23:36:02.712Z,30.57
2017-09-19T23:38:31.074Z,33.40
2017-09-19T23:40:59.460Z,32.33
2017-09-19T23:43:27.847Z,32.93
2017-09-19T23:45:56.234Z,30.90
2017-09-19T23:48:24.619Z,31.20
2017-09-19T23:50:53.020Z,31.93
2017-09-19T23:53:21.380Z,31.90
2017-09-19T23:55:49.765Z,31.10
2017-09-19T23:58:18.259Z,32.10
